Terminal Aerodrome Forecast
Issued by NWS Jacksonville, FL

Home | Current Version | Previous Version | Text Only | Print | Product List | Glossary On
Versions: 1 2 3 4 5 6 7 8 9 10 11 12 13 14 15 16 17
000
FTUS42 KJAX 292347
TAFJAX
TAF
KJAX 292347Z 3000/3024 15005KT P6SM FEW120 BKN250
     FM300200 22003KT P6SM SCT100 OVC250
     FM301200 27011KT P6SM VCSH BKN020 OVC050
     FM301700 32012G20KT P6SM SCT250
     FM302200 33008KT P6SM FEW250=

USA.gov is the U.S. government's official web portal to all federal, state and local government web resources and services.